sensor_id;sensor_type;location;lat;lon;timestamp;P1;durP1;ratioP1;P2;durP2;ratioP2
12623;SDS011;6377;42.836;23.998;2023-12-20T00:01:05;36.97;;;19.90;;
12623;SDS011;6377;42.836;23.998;2023-12-20T00:03:32;37.63;;;21.57;;
12623;SDS011;6377;42.836;23.998;2023-12-20T00:06:00;38.50;;;22.40;;
12623;SDS011;6377;42.836;23.998;2023-12-20T00:08:28;41.87;;;23.80;;
12623;SDS011;6377;42.836;23.998;2023-12-20T00:10:55;44.53;;;24.70;;
12623;SDS011;6377;42.836;23.998;2023-12-20T00:13:23;45.40;;;25.00;;
12623;SDS011;6377;42.836;23.998;2023-12-20T00:15:53;42.00;;;24.30;;
12623;SDS011;6377;42.836;23.998;2023-12-20T00:18:21;48.40;;;26.57;;
12623;SDS011;6377;42.836;23.998;2023-12-20T00:20:48;61.03;;;33.43;;
12623;SDS011;6377;42.836;23.998;2023-12-20T00:23:16;62.97;;;34.40;;
12623;SDS011;6377;42.836;23.998;2023-12-20T00:25:53;48.30;;;26.17;;
12623;SDS011;6377;42.836;23.998;2023-12-20T00:28:21;50.77;;;28.53;;
12623;SDS011;6377;42.836;23.998;2023-12-20T00:30:52;40.57;;;23.00;;
12623;SDS011;6377;42.836;23.998;2023-12-20T00:33:21;43.30;;;23.67;;
12623;SDS011;6377;42.836;23.998;2023-12-20T00:35:49;39.53;;;23.57;;
12623;SDS011;6377;42.836;23.998;2023-12-20T00:38:17;43.30;;;25.00;;
12623;SDS011;6377;42.836;23.998;2023-12-20T00:40:51;40.13;;;23.77;;
12623;SDS011;6377;42.836;23.998;2023-12-20T00:43:18;41.47;;;22.60;;
12623;SDS011;6377;42.836;23.998;2023-12-20T00:45:46;40.57;;;23.53;;
12623;SDS011;6377;42.836;23.998;2023-12-20T00:48:16;43.33;;;23.87;;
12623;SDS011;6377;42.836;23.998;2023-12-20T00:50:44;45.97;;;24.93;;
12623;SDS011;6377;42.836;23.998;2023-12-20T00:53:11;43.40;;;26.13;;
12623;SDS011;6377;42.836;23.998;2023-12-20T00:55:39;37.43;;;22.27;;
12623;SDS011;6377;42.836;23.998;2023-12-20T00:58:10;32.87;;;20.90;;
12623;SDS011;6377;42.836;23.998;2023-12-20T01:00:42;36.73;;;22.00;;
12623;SDS011;6377;42.836;23.998;2023-12-20T01:03:11;39.37;;;23.77;;
12623;SDS011;6377;42.836;23.998;2023-12-20T01:05:42;39.13;;;23.40;;
12623;SDS011;6377;42.836;23.998;2023-12-20T01:08:09;37.33;;;21.53;;
12623;SDS011;6377;42.836;23.998;2023-12-20T01:10:38;32.27;;;20.40;;
12623;SDS011;6377;42.836;23.998;2023-12-20T01:13:09;32.00;;;20.63;;
12623;SDS011;6377;42.836;23.998;2023-12-20T01:15:37;30.97;;;19.30;;
12623;SDS011;6377;42.836;23.998;2023-12-20T01:18:05;25.57;;;16.37;;
12623;SDS011;6377;42.836;23.998;2023-12-20T01:20:33;28.63;;;17.23;;
12623;SDS011;6377;42.836;23.998;2023-12-20T01:23:04;26.47;;;16.97;;
12623;SDS011;6377;42.836;23.998;2023-12-20T01:25:32;28.47;;;17.80;;
12623;SDS011;6377;42.836;23.998;2023-12-20T01:28:00;29.97;;;18.43;;
12623;SDS011;6377;42.836;23.998;2023-12-20T01:30:30;31.03;;;17.90;;
12623;SDS011;6377;42.836;23.998;2023-12-20T01:33:01;29.83;;;18.87;;
12623;SDS011;6377;42.836;23.998;2023-12-20T01:35:31;36.90;;;21.83;;
12623;SDS011;6377;42.836;23.998;2023-12-20T01:37:59;42.10;;;25.60;;
12623;SDS011;6377;42.836;23.998;2023-12-20T01:46:32;36.27;;;20.03;;
12623;SDS011;6377;42.836;23.998;2023-12-20T01:49:39;34.70;;;18.93;;
12623;SDS011;6377;42.836;23.998;2023-12-20T01:52:10;28.57;;;16.57;;
12623;SDS011;6377;42.836;23.998;2023-12-20T01:54:44;28.70;;;17.43;;
12623;SDS011;6377;42.836;23.998;2023-12-20T01:57:18;22.60;;;14.63;;
12623;SDS011;6377;42.836;23.998;2023-12-20T01:59:47;29.33;;;17.20;;
12623;SDS011;6377;42.836;23.998;2023-12-20T02:02:16;24.90;;;14.63;;
12623;SDS011;6377;42.836;23.998;2023-12-20T02:04:47;23.90;;;15.53;;
12623;SDS011;6377;42.836;23.998;2023-12-20T02:07:16;27.17;;;16.63;;
12623;SDS011;6377;42.836;23.998;2023-12-20T02:09:45;26.67;;;15.93;;
12623;SDS011;6377;42.836;23.998;2023-12-20T02:12:13;30.87;;;16.80;;
12623;SDS011;6377;42.836;23.998;2023-12-20T02:14:42;34.60;;;17.33;;
12623;SDS011;6377;42.836;23.998;2023-12-20T02:17:13;34.57;;;19.17;;
12623;SDS011;6377;42.836;23.998;2023-12-20T02:19:44;35.53;;;19.13;;
12623;SDS011;6377;42.836;23.998;2023-12-20T02:22:16;32.07;;;17.97;;
12623;SDS011;6377;42.836;23.998;2023-12-20T02:24:44;30.90;;;16.70;;
12623;SDS011;6377;42.836;23.998;2023-12-20T02:27:12;26.00;;;15.37;;
12623;SDS011;6377;42.836;23.998;2023-12-20T02:29:45;28.43;;;16.57;;
12623;SDS011;6377;42.836;23.998;2023-12-20T02:32:14;30.77;;;17.37;;
12623;SDS011;6377;42.836;23.998;2023-12-20T02:34:42;33.83;;;18.77;;
12623;SDS011;6377;42.836;23.998;2023-12-20T02:37:15;30.93;;;17.70;;
12623;SDS011;6377;42.836;23.998;2023-12-20T02:39:43;28.13;;;15.77;;
12623;SDS011;6377;42.836;23.998;2023-12-20T02:42:11;26.23;;;16.53;;
12623;SDS011;6377;42.836;23.998;2023-12-20T02:44:39;25.13;;;15.00;;
12623;SDS011;6377;42.836;23.998;2023-12-20T02:47:10;24.97;;;14.83;;
12623;SDS011;6377;42.836;23.998;2023-12-20T02:49:37;26.43;;;15.03;;
12623;SDS011;6377;42.836;23.998;2023-12-20T02:52:05;29.83;;;15.73;;
12623;SDS011;6377;42.836;23.998;2023-12-20T02:54:35;27.93;;;15.60;;
12623;SDS011;6377;42.836;23.998;2023-12-20T02:57:03;22.77;;;13.90;;
12623;SDS011;6377;42.836;23.998;2023-12-20T02:59:36;21.97;;;13.63;;
12623;SDS011;6377;42.836;23.998;2023-12-20T03:02:04;22.23;;;14.30;;
12623;SDS011;6377;42.836;23.998;2023-12-20T03:04:35;21.63;;;13.60;;
12623;SDS011;6377;42.836;23.998;2023-12-20T03:07:03;20.60;;;13.23;;
12623;SDS011;6377;42.836;23.998;2023-12-20T03:09:36;20.20;;;13.43;;
12623;SDS011;6377;42.836;23.998;2023-12-20T03:12:04;21.47;;;13.67;;
12623;SDS011;6377;42.836;23.998;2023-12-20T03:14:34;22.57;;;13.67;;
12623;SDS011;6377;42.836;23.998;2023-12-20T03:17:01;21.87;;;13.67;;
12623;SDS011;6377;42.836;23.998;2023-12-20T03:19:29;22.33;;;13.87;;
12623;SDS011;6377;42.836;23.998;2023-12-20T03:21:56;31.67;;;17.87;;
12623;SDS011;6377;42.836;23.998;2023-12-20T03:24:34;25.20;;;14.97;;
12623;SDS011;6377;42.836;23.998;2023-12-20T03:29:56;23.23;;;13.90;;
12623;SDS011;6377;42.836;23.998;2023-12-20T03:32:27;26.67;;;16.27;;
12623;SDS011;6377;42.836;23.998;2023-12-20T03:34:56;22.00;;;13.60;;
12623;SDS011;6377;42.836;23.998;2023-12-20T03:37:27;25.30;;;14.90;;
12623;SDS011;6377;42.836;23.998;2023-12-20T03:39:57;20.57;;;13.47;;
12623;SDS011;6377;42.836;23.998;2023-12-20T03:42:25;22.53;;;14.37;;
12623;SDS011;6377;42.836;23.998;2023-12-20T03:44:53;25.53;;;15.87;;
12623;SDS011;6377;42.836;23.998;2023-12-20T03:47:24;22.17;;;14.40;;
12623;SDS011;6377;42.836;23.998;2023-12-20T03:49:52;23.13;;;14.77;;
12623;SDS011;6377;42.836;23.998;2023-12-20T03:52:20;24.93;;;14.40;;
12623;SDS011;6377;42.836;23.998;2023-12-20T03:54:48;25.03;;;14.00;;
12623;SDS011;6377;42.836;23.998;2023-12-20T03:57:16;20.93;;;12.93;;
12623;SDS011;6377;42.836;23.998;2023-12-20T03:59:44;27.43;;;16.83;;
12623;SDS011;6377;42.836;23.998;2023-12-20T04:02:15;26.60;;;16.53;;
12623;SDS011;6377;42.836;23.998;2023-12-20T04:04:44;23.63;;;14.63;;
12623;SDS011;6377;42.836;23.998;2023-12-20T04:07:21;28.50;;;17.07;;
12623;SDS011;6377;42.836;23.998;2023-12-20T04:09:56;23.37;;;14.50;;
12623;SDS011;6377;42.836;23.998;2023-12-20T04:12:33;27.23;;;16.00;;
12623;SDS011;6377;42.836;23.998;2023-12-20T04:15:04;92.10;;;41.13;;
12623;SDS011;6377;42.836;23.998;2023-12-20T04:20:53;61.80;;;31.93;;
12623;SDS011;6377;42.836;23.998;2023-12-20T04:26:36;43.90;;;23.70;;
12623;SDS011;6377;42.836;23.998;2023-12-20T05:14:13;52.73;;;30.63;;
12623;SDS011;6377;42.836;23.998;2023-12-20T05:19:57;44.83;;;29.43;;
12623;SDS011;6377;42.836;23.998;2023-12-20T05:22:38;63.80;;;40.43;;
12623;SDS011;6377;42.836;23.998;2023-12-20T05:25:11;44.47;;;26.67;;
12623;SDS011;6377;42.836;23.998;2023-12-20T05:30:53;57.77;;;34.23;;
12623;SDS011;6377;42.836;23.998;2023-12-20T05:33:25;76.30;;;45.93;;
12623;SDS011;6377;42.836;23.998;2023-12-20T05:36:00;57.77;;;36.93;;
12623;SDS011;6377;42.836;23.998;2023-12-20T05:38:28;61.83;;;38.63;;
12623;SDS011;6377;42.836;23.998;2023-12-20T05:40:59;51.43;;;33.10;;
12623;SDS011;6377;42.836;23.998;2023-12-20T05:43:26;55.57;;;33.30;;
12623;SDS011;6377;42.836;23.998;2023-12-20T05:45:57;56.97;;;33.57;;
12623;SDS011;6377;42.836;23.998;2023-12-20T05:48:29;94.90;;;54.43;;
12623;SDS011;6377;42.836;23.998;2023-12-20T05:57:33;73.37;;;42.53;;
12623;SDS011;6377;42.836;23.998;2023-12-20T06:29:57;82.17;;;47.13;;
12623;SDS011;6377;42.836;23.998;2023-12-20T06:35:48;76.73;;;46.03;;
12623;SDS011;6377;42.836;23.998;2023-12-20T06:47:21;78.37;;;45.63;;
12623;SDS011;6377;42.836;23.998;2023-12-20T06:49:50;86.13;;;48.90;;
12623;SDS011;6377;42.836;23.998;2023-12-20T06:52:17;91.23;;;54.77;;
12623;SDS011;6377;42.836;23.998;2023-12-20T06:54:45;125.03;;;65.93;;
12623;SDS011;6377;42.836;23.998;2023-12-20T06:57:13;127.53;;;65.13;;
12623;SDS011;6377;42.836;23.998;2023-12-20T06:59:45;95.57;;;53.93;;
12623;SDS011;6377;42.836;23.998;2023-12-20T07:02:17;84.63;;;48.83;;
12623;SDS011;6377;42.836;23.998;2023-12-20T07:04:58;101.57;;;59.23;;
12623;SDS011;6377;42.836;23.998;2023-12-20T07:07:29;76.03;;;46.13;;
12623;SDS011;6377;42.836;23.998;2023-12-20T07:10:00;110.33;;;61.20;;
12623;SDS011;6377;42.836;23.998;2023-12-20T07:12:33;88.50;;;52.30;;
12623;SDS011;6377;42.836;23.998;2023-12-20T07:15:01;84.33;;;50.97;;
12623;SDS011;6377;42.836;23.998;2023-12-20T07:17:32;79.47;;;48.77;;
12623;SDS011;6377;42.836;23.998;2023-12-20T07:20:01;95.13;;;58.40;;
12623;SDS011;6377;42.836;23.998;2023-12-20T07:22:35;127.23;;;76.20;;
12623;SDS011;6377;42.836;23.998;2023-12-20T07:25:03;94.73;;;56.67;;
12623;SDS011;6377;42.836;23.998;2023-12-20T07:27:45;80.57;;;49.63;;
12623;SDS011;6377;42.836;23.998;2023-12-20T07:30:27;96.63;;;54.53;;
12623;SDS011;6377;42.836;23.998;2023-12-20T07:40:17;95.73;;;58.33;;
12623;SDS011;6377;42.836;23.998;2023-12-20T07:42:45;119.30;;;68.57;;
12623;SDS011;6377;42.836;23.998;2023-12-20T07:45:16;90.30;;;52.97;;
12623;SDS011;6377;42.836;23.998;2023-12-20T07:47:46;113.67;;;67.30;;
12623;SDS011;6377;42.836;23.998;2023-12-20T07:50:14;92.27;;;58.37;;
12623;SDS011;6377;42.836;23.998;2023-12-20T07:52:43;102.77;;;62.23;;
12623;SDS011;6377;42.836;23.998;2023-12-20T07:55:25;129.43;;;76.33;;
12623;SDS011;6377;42.836;23.998;2023-12-20T07:57:53;106.63;;;63.80;;
12623;SDS011;6377;42.836;23.998;2023-12-20T08:00:22;147.23;;;88.23;;
12623;SDS011;6377;42.836;23.998;2023-12-20T08:02:53;146.90;;;90.73;;
12623;SDS011;6377;42.836;23.998;2023-12-20T08:05:21;172.50;;;100.63;;
12623;SDS011;6377;42.836;23.998;2023-12-20T08:07:53;166.17;;;99.30;;
12623;SDS011;6377;42.836;23.998;2023-12-20T08:10:20;171.03;;;103.30;;
12623;SDS011;6377;42.836;23.998;2023-12-20T08:12:47;129.40;;;80.10;;
12623;SDS011;6377;42.836;23.998;2023-12-20T08:15:14;160.27;;;99.47;;
12623;SDS011;6377;42.836;23.998;2023-12-20T08:17:42;166.40;;;100.93;;
12623;SDS011;6377;42.836;23.998;2023-12-20T08:20:18;174.70;;;106.60;;
12623;SDS011;6377;42.836;23.998;2023-12-20T08:22:55;161.03;;;101.40;;
12623;SDS011;6377;42.836;23.998;2023-12-20T08:25:38;184.27;;;109.00;;
12623;SDS011;6377;42.836;23.998;2023-12-20T08:28:13;162.53;;;100.90;;
12623;SDS011;6377;42.836;23.998;2023-12-20T08:30:41;162.10;;;102.23;;
12623;SDS011;6377;42.836;23.998;2023-12-20T08:33:09;165.03;;;100.87;;
12623;SDS011;6377;42.836;23.998;2023-12-20T08:35:38;145.33;;;90.70;;
12623;SDS011;6377;42.836;23.998;2023-12-20T08:38:07;163.50;;;93.57;;
12623;SDS011;6377;42.836;23.998;2023-12-20T08:40:34;165.57;;;96.30;;
12623;SDS011;6377;42.836;23.998;2023-12-20T08:43:01;160.67;;;98.40;;
12623;SDS011;6377;42.836;23.998;2023-12-20T08:45:29;157.70;;;96.43;;
12623;SDS011;6377;42.836;23.998;2023-12-20T08:47:56;146.23;;;89.97;;
12623;SDS011;6377;42.836;23.998;2023-12-20T08:50:23;147.93;;;86.87;;
12623;SDS011;6377;42.836;23.998;2023-12-20T08:52:50;96.97;;;57.57;;
12623;SDS011;6377;42.836;23.998;2023-12-20T08:55:19;135.27;;;85.73;;
12623;SDS011;6377;42.836;23.998;2023-12-20T08:57:46;149.57;;;92.70;;
12623;SDS011;6377;42.836;23.998;2023-12-20T09:00:14;135.07;;;89.07;;
12623;SDS011;6377;42.836;23.998;2023-12-20T09:02:42;137.70;;;88.40;;
12623;SDS011;6377;42.836;23.998;2023-12-20T09:05:09;124.87;;;79.63;;
12623;SDS011;6377;42.836;23.998;2023-12-20T09:07:36;115.87;;;77.17;;
12623;SDS011;6377;42.836;23.998;2023-12-20T09:10:03;119.87;;;78.40;;
12623;SDS011;6377;42.836;23.998;2023-12-20T09:12:32;84.00;;;57.07;;
12623;SDS011;6377;42.836;23.998;2023-12-20T09:14:59;124.93;;;81.40;;
12623;SDS011;6377;42.836;23.998;2023-12-20T09:17:27;102.03;;;69.27;;
12623;SDS011;6377;42.836;23.998;2023-12-20T09:19:55;97.53;;;64.70;;
12623;SDS011;6377;42.836;23.998;2023-12-20T09:22:22;108.40;;;71.67;;
12623;SDS011;6377;42.836;23.998;2023-12-20T09:24:49;96.53;;;66.63;;
12623;SDS011;6377;42.836;23.998;2023-12-20T09:27:16;92.27;;;62.23;;
12623;SDS011;6377;42.836;23.998;2023-12-20T09:29:45;84.07;;;56.23;;
12623;SDS011;6377;42.836;23.998;2023-12-20T09:32:13;87.57;;;59.00;;
12623;SDS011;6377;42.836;23.998;2023-12-20T09:34:40;76.07;;;53.80;;
12623;SDS011;6377;42.836;23.998;2023-12-20T09:37:08;61.07;;;40.00;;
12623;SDS011;6377;42.836;23.998;2023-12-20T09:39:35;59.63;;;41.37;;
12623;SDS011;6377;42.836;23.998;2023-12-20T09:42:03;59.20;;;41.70;;
12623;SDS011;6377;42.836;23.998;2023-12-20T09:44:31;56.37;;;37.10;;
12623;SDS011;6377;42.836;23.998;2023-12-20T09:47:01;57.90;;;38.13;;
12623;SDS011;6377;42.836;23.998;2023-12-20T09:49:29;63.07;;;39.17;;
12623;SDS011;6377;42.836;23.998;2023-12-20T09:51:57;60.07;;;38.40;;
12623;SDS011;6377;42.836;23.998;2023-12-20T09:54:27;76.10;;;47.87;;
12623;SDS011;6377;42.836;23.998;2023-12-20T09:56:56;85.90;;;51.10;;
12623;SDS011;6377;42.836;23.998;2023-12-20T09:59:23;82.87;;;48.93;;
12623;SDS011;6377;42.836;23.998;2023-12-20T10:01:50;79.37;;;47.57;;
12623;SDS011;6377;42.836;23.998;2023-12-20T10:04:22;94.97;;;59.77;;
12623;SDS011;6377;42.836;23.998;2023-12-20T10:06:51;178.03;;;96.87;;
12623;SDS011;6377;42.836;23.998;2023-12-20T10:09:18;177.10;;;90.93;;
12623;SDS011;6377;42.836;23.998;2023-12-20T10:11:45;161.77;;;83.97;;
12623;SDS011;6377;42.836;23.998;2023-12-20T10:14:13;173.23;;;88.60;;
12623;SDS011;6377;42.836;23.998;2023-12-20T10:16:40;155.70;;;85.40;;
12623;SDS011;6377;42.836;23.998;2023-12-20T10:19:07;186.13;;;98.40;;
12623;SDS011;6377;42.836;23.998;2023-12-20T10:21:36;169.47;;;96.53;;
12623;SDS011;6377;42.836;23.998;2023-12-20T10:24:04;148.53;;;94.97;;
12623;SDS011;6377;42.836;23.998;2023-12-20T10:26:32;147.43;;;95.00;;
12623;SDS011;6377;42.836;23.998;2023-12-20T10:29:00;104.73;;;74.33;;
12623;SDS011;6377;42.836;23.998;2023-12-20T10:31:29;107.93;;;71.03;;
12623;SDS011;6377;42.836;23.998;2023-12-20T10:33:57;84.57;;;60.07;;
12623;SDS011;6377;42.836;23.998;2023-12-20T10:36:26;59.47;;;43.20;;
12623;SDS011;6377;42.836;23.998;2023-12-20T10:38:57;37.23;;;28.50;;
12623;SDS011;6377;42.836;23.998;2023-12-20T10:41:25;46.73;;;33.30;;
12623;SDS011;6377;42.836;23.998;2023-12-20T10:43:58;42.60;;;30.07;;
12623;SDS011;6377;42.836;23.998;2023-12-20T10:46:26;66.50;;;46.97;;
12623;SDS011;6377;42.836;23.998;2023-12-20T10:48:55;52.03;;;33.43;;
12623;SDS011;6377;42.836;23.998;2023-12-20T10:51:23;46.87;;;33.27;;
12623;SDS011;6377;42.836;23.998;2023-12-20T10:53:52;46.63;;;34.47;;
12623;SDS011;6377;42.836;23.998;2023-12-20T10:56:36;40.20;;;27.53;;
12623;SDS011;6377;42.836;23.998;2023-12-20T10:59:04;40.77;;;30.37;;
12623;SDS011;6377;42.836;23.998;2023-12-20T11:01:35;40.00;;;25.33;;
12623;SDS011;6377;42.836;23.998;2023-12-20T11:04:04;51.27;;;34.83;;
12623;SDS011;6377;42.836;23.998;2023-12-20T11:06:40;51.80;;;34.97;;
12623;SDS011;6377;42.836;23.998;2023-12-20T11:09:17;58.67;;;39.37;;
12623;SDS011;6377;42.836;23.998;2023-12-20T11:11:59;45.50;;;31.70;;
12623;SDS011;6377;42.836;23.998;2023-12-20T11:14:34;45.10;;;33.67;;
12623;SDS011;6377;42.836;23.998;2023-12-20T11:17:08;50.23;;;35.47;;
12623;SDS011;6377;42.836;23.998;2023-12-20T11:19:38;38.47;;;26.63;;
12623;SDS011;6377;42.836;23.998;2023-12-20T11:22:27;34.60;;;25.90;;
12623;SDS011;6377;42.836;23.998;2023-12-20T11:27:28;32.90;;;24.03;;
12623;SDS011;6377;42.836;23.998;2023-12-20T11:29:59;36.47;;;24.97;;
12623;SDS011;6377;42.836;23.998;2023-12-20T11:32:31;65.53;;;37.10;;
12623;SDS011;6377;42.836;23.998;2023-12-20T11:35:01;43.30;;;27.50;;
12623;SDS011;6377;42.836;23.998;2023-12-20T11:37:45;38.03;;;26.23;;
12623;SDS011;6377;42.836;23.998;2023-12-20T11:40:14;30.80;;;21.90;;
12623;SDS011;6377;42.836;23.998;2023-12-20T11:42:44;29.50;;;22.10;;
12623;SDS011;6377;42.836;23.998;2023-12-20T11:45:13;42.23;;;24.97;;
12623;SDS011;6377;42.836;23.998;2023-12-20T11:47:42;57.57;;;38.80;;
12623;SDS011;6377;42.836;23.998;2023-12-20T11:50:10;56.63;;;38.10;;
12623;SDS011;6377;42.836;23.998;2023-12-20T11:52:37;39.77;;;28.27;;
12623;SDS011;6377;42.836;23.998;2023-12-20T11:55:05;28.53;;;20.63;;
12623;SDS011;6377;42.836;23.998;2023-12-20T11:57:33;45.83;;;30.87;;
12623;SDS011;6377;42.836;23.998;2023-12-20T12:00:02;49.90;;;31.00;;
12623;SDS011;6377;42.836;23.998;2023-12-20T12:02:29;44.47;;;29.23;;
12623;SDS011;6377;42.836;23.998;2023-12-20T12:04:57;49.80;;;28.97;;
12623;SDS011;6377;42.836;23.998;2023-12-20T12:07:25;42.20;;;28.07;;
12623;SDS011;6377;42.836;23.998;2023-12-20T12:09:52;44.13;;;27.50;;
12623;SDS011;6377;42.836;23.998;2023-12-20T12:12:19;37.83;;;25.00;;
12623;SDS011;6377;42.836;23.998;2023-12-20T12:14:47;27.30;;;14.43;;
12623;SDS011;6377;42.836;23.998;2023-12-20T12:17:17;25.77;;;16.60;;
12623;SDS011;6377;42.836;23.998;2023-12-20T12:19:44;21.10;;;13.20;;
12623;SDS011;6377;42.836;23.998;2023-12-20T12:22:12;27.43;;;18.57;;
12623;SDS011;6377;42.836;23.998;2023-12-20T12:24:41;14.73;;;9.47;;
12623;SDS011;6377;42.836;23.998;2023-12-20T12:27:09;17.17;;;10.50;;
12623;SDS011;6377;42.836;23.998;2023-12-20T12:29:37;16.93;;;10.63;;
12623;SDS011;6377;42.836;23.998;2023-12-20T12:32:04;15.10;;;11.60;;
12623;SDS011;6377;42.836;23.998;2023-12-20T12:34:34;25.67;;;16.30;;
12623;SDS011;6377;42.836;23.998;2023-12-20T12:37:01;13.27;;;8.73;;
12623;SDS011;6377;42.836;23.998;2023-12-20T12:39:30;9.53;;;6.00;;
12623;SDS011;6377;42.836;23.998;2023-12-20T12:41:57;9.20;;;6.07;;
12623;SDS011;6377;42.836;23.998;2023-12-20T12:44:24;16.00;;;10.77;;
12623;SDS011;6377;42.836;23.998;2023-12-20T12:46:51;18.60;;;11.93;;
12623;SDS011;6377;42.836;23.998;2023-12-20T12:49:19;10.57;;;7.10;;
12623;SDS011;6377;42.836;23.998;2023-12-20T12:51:48;13.17;;;9.87;;
12623;SDS011;6377;42.836;23.998;2023-12-20T12:54:15;12.53;;;6.37;;
12623;SDS011;6377;42.836;23.998;2023-12-20T12:56:43;12.20;;;8.17;;
12623;SDS011;6377;42.836;23.998;2023-12-20T12:59:12;15.20;;;8.90;;
12623;SDS011;6377;42.836;23.998;2023-12-20T13:01:39;18.90;;;13.23;;
12623;SDS011;6377;42.836;23.998;2023-12-20T13:04:06;12.30;;;9.97;;
12623;SDS011;6377;42.836;23.998;2023-12-20T13:06:36;12.17;;;7.77;;
12623;SDS011;6377;42.836;23.998;2023-12-20T13:09:05;17.97;;;9.30;;
12623;SDS011;6377;42.836;23.998;2023-12-20T13:11:32;10.60;;;7.47;;
12623;SDS011;6377;42.836;23.998;2023-12-20T13:14:00;11.13;;;7.73;;
12623;SDS011;6377;42.836;23.998;2023-12-20T13:16:28;11.30;;;8.17;;
12623;SDS011;6377;42.836;23.998;2023-12-20T13:18:56;11.73;;;8.60;;
12623;SDS011;6377;42.836;23.998;2023-12-20T13:21:25;10.33;;;6.63;;
12623;SDS011;6377;42.836;23.998;2023-12-20T13:23:52;25.90;;;12.23;;
12623;SDS011;6377;42.836;23.998;2023-12-20T13:26:21;128.20;;;52.23;;
12623;SDS011;6377;42.836;23.998;2023-12-20T13:28:48;8.93;;;5.27;;
12623;SDS011;6377;42.836;23.998;2023-12-20T13:31:15;9.20;;;6.63;;
12623;SDS011;6377;42.836;23.998;2023-12-20T13:33:42;7.63;;;5.07;;
12623;SDS011;6377;42.836;23.998;2023-12-20T13:36:09;11.40;;;6.83;;
12623;SDS011;6377;42.836;23.998;2023-12-20T13:38:36;21.27;;;13.40;;
12623;SDS011;6377;42.836;23.998;2023-12-20T13:41:03;29.40;;;19.93;;
12623;SDS011;6377;42.836;23.998;2023-12-20T13:43:32;33.07;;;22.50;;
12623;SDS011;6377;42.836;23.998;2023-12-20T13:46:01;47.80;;;30.67;;
12623;SDS011;6377;42.836;23.998;2023-12-20T13:48:28;31.30;;;20.83;;
12623;SDS011;6377;42.836;23.998;2023-12-20T13:50:55;31.37;;;18.83;;
12623;SDS011;6377;42.836;23.998;2023-12-20T13:53:23;32.27;;;21.97;;
12623;SDS011;6377;42.836;23.998;2023-12-20T13:55:50;27.33;;;18.27;;
12623;SDS011;6377;42.836;23.998;2023-12-20T13:58:18;27.97;;;19.07;;
12623;SDS011;6377;42.836;23.998;2023-12-20T14:00:46;40.10;;;27.70;;
12623;SDS011;6377;42.836;23.998;2023-12-20T14:03:14;35.63;;;26.70;;
12623;SDS011;6377;42.836;23.998;2023-12-20T14:05:41;22.43;;;16.03;;
12623;SDS011;6377;42.836;23.998;2023-12-20T14:08:08;26.83;;;19.13;;
12623;SDS011;6377;42.836;23.998;2023-12-20T14:10:35;68.13;;;40.43;;
12623;SDS011;6377;42.836;23.998;2023-12-20T14:13:03;57.57;;;36.33;;
12623;SDS011;6377;42.836;23.998;2023-12-20T14:15:31;62.13;;;40.70;;
12623;SDS011;6377;42.836;23.998;2023-12-20T14:18:04;27.73;;;20.80;;
12623;SDS011;6377;42.836;23.998;2023-12-20T14:20:33;23.83;;;17.27;;
12623;SDS011;6377;42.836;23.998;2023-12-20T14:23:00;11.57;;;8.43;;
12623;SDS011;6377;42.836;23.998;2023-12-20T14:25:27;11.67;;;7.77;;
12623;SDS011;6377;42.836;23.998;2023-12-20T14:27:55;16.40;;;11.33;;
12623;SDS011;6377;42.836;23.998;2023-12-20T14:30:23;22.60;;;16.03;;
12623;SDS011;6377;42.836;23.998;2023-12-20T14:32:53;27.03;;;18.50;;
12623;SDS011;6377;42.836;23.998;2023-12-20T14:35:22;29.07;;;18.70;;
12623;SDS011;6377;42.836;23.998;2023-12-20T14:37:49;23.53;;;16.43;;
12623;SDS011;6377;42.836;23.998;2023-12-20T14:40:16;30.60;;;18.67;;
12623;SDS011;6377;42.836;23.998;2023-12-20T14:42:44;17.23;;;11.67;;
12623;SDS011;6377;42.836;23.998;2023-12-20T14:45:11;19.90;;;12.13;;
12623;SDS011;6377;42.836;23.998;2023-12-20T14:47:39;18.83;;;13.40;;
12623;SDS011;6377;42.836;23.998;2023-12-20T14:50:07;26.50;;;18.40;;
12623;SDS011;6377;42.836;23.998;2023-12-20T14:52:37;10.13;;;6.80;;
12623;SDS011;6377;42.836;23.998;2023-12-20T14:55:04;39.37;;;25.43;;
12623;SDS011;6377;42.836;23.998;2023-12-20T14:57:32;90.00;;;55.93;;
12623;SDS011;6377;42.836;23.998;2023-12-20T14:59:59;81.87;;;50.50;;
12623;SDS011;6377;42.836;23.998;2023-12-20T15:02:26;138.43;;;82.00;;
12623;SDS011;6377;42.836;23.998;2023-12-20T15:04:53;83.77;;;53.70;;
12623;SDS011;6377;42.836;23.998;2023-12-20T15:07:21;79.03;;;47.70;;
12623;SDS011;6377;42.836;23.998;2023-12-20T15:09:49;90.17;;;51.20;;
12623;SDS011;6377;42.836;23.998;2023-12-20T15:12:16;104.53;;;59.13;;
12623;SDS011;6377;42.836;23.998;2023-12-20T15:14:44;95.37;;;57.57;;
12623;SDS011;6377;42.836;23.998;2023-12-20T15:17:11;90.90;;;57.07;;
12623;SDS011;6377;42.836;23.998;2023-12-20T15:19:39;89.70;;;53.37;;
12623;SDS011;6377;42.836;23.998;2023-12-20T15:22:08;88.63;;;55.63;;
12623;SDS011;6377;42.836;23.998;2023-12-20T15:24:36;84.57;;;53.50;;
12623;SDS011;6377;42.836;23.998;2023-12-20T15:27:07;86.63;;;51.47;;
12623;SDS011;6377;42.836;23.998;2023-12-20T15:29:37;92.17;;;55.00;;
12623;SDS011;6377;42.836;23.998;2023-12-20T15:32:04;101.27;;;61.50;;
12623;SDS011;6377;42.836;23.998;2023-12-20T15:34:32;133.40;;;79.17;;
12623;SDS011;6377;42.836;23.998;2023-12-20T15:36:59;128.47;;;77.47;;
12623;SDS011;6377;42.836;23.998;2023-12-20T15:39:26;112.00;;;67.13;;
12623;SDS011;6377;42.836;23.998;2023-12-20T15:41:53;109.10;;;66.63;;
12623;SDS011;6377;42.836;23.998;2023-12-20T15:44:22;121.33;;;74.57;;
12623;SDS011;6377;42.836;23.998;2023-12-20T15:46:49;55.13;;;35.53;;
12623;SDS011;6377;42.836;23.998;2023-12-20T15:49:18;58.60;;;37.53;;
12623;SDS011;6377;42.836;23.998;2023-12-20T15:51:45;82.97;;;50.10;;
12623;SDS011;6377;42.836;23.998;2023-12-20T15:54:12;57.93;;;38.90;;
12623;SDS011;6377;42.836;23.998;2023-12-20T15:56:39;54.07;;;34.90;;
12623;SDS011;6377;42.836;23.998;2023-12-20T15:59:10;44.70;;;28.80;;
12623;SDS011;6377;42.836;23.998;2023-12-20T16:01:38;50.43;;;32.90;;
12623;SDS011;6377;42.836;23.998;2023-12-20T16:04:05;59.00;;;38.30;;
12623;SDS011;6377;42.836;23.998;2023-12-20T16:06:32;56.80;;;35.23;;
12623;SDS011;6377;42.836;23.998;2023-12-20T16:09:01;72.07;;;45.13;;
12623;SDS011;6377;42.836;23.998;2023-12-20T16:11:28;88.20;;;53.23;;
12623;SDS011;6377;42.836;23.998;2023-12-20T16:13:55;77.80;;;49.37;;
12623;SDS011;6377;42.836;23.998;2023-12-20T16:16:22;44.70;;;28.67;;
12623;SDS011;6377;42.836;23.998;2023-12-20T16:18:51;65.00;;;40.77;;
12623;SDS011;6377;42.836;23.998;2023-12-20T16:21:18;32.87;;;23.03;;
12623;SDS011;6377;42.836;23.998;2023-12-20T16:23:45;31.17;;;21.87;;
12623;SDS011;6377;42.836;23.998;2023-12-20T16:26:12;37.47;;;25.43;;
12623;SDS011;6377;42.836;23.998;2023-12-20T16:28:39;31.60;;;19.20;;
12623;SDS011;6377;42.836;23.998;2023-12-20T16:31:06;41.93;;;25.40;;
12623;SDS011;6377;42.836;23.998;2023-12-20T16:33:34;37.87;;;24.30;;
12623;SDS011;6377;42.836;23.998;2023-12-20T16:36:02;28.30;;;20.07;;
12623;SDS011;6377;42.836;23.998;2023-12-20T16:38:30;21.57;;;14.37;;